Time;durP1;ratioP1;P1;durP2;ratioP2;P2;SDS_P1;SDS_P2;PMS_P1;PMS_P2;Temp;Humidity;BMP_temperature;BMP_pressure;BME280_temperature;BME280_humidity;BME280_pressure;Samples;Min_cycle;Max_cycle;Signal;HPM_P1;HPM_P2
2022/07/23 00:01:28;;;;;;;1.90;1.27;;;;;;;16.93;70.62;102001.66;4986972;28;20289;-77
2022/07/23 00:03:54;;;;;;;2.15;1.15;;;;;;;16.93;70.75;101998.16;4998203;28;20042;-77
2022/07/23 00:06:20;;;;;;;1.20;1.10;;;;;;;16.93;70.74;101995.50;4993226;28;20037;-77
2022/07/23 00:08:46;;;;;;;1.63;1.48;;;;;;;16.92;70.96;102001.72;4989290;28;20329;-77
2022/07/23 00:11:11;;;;;;;1.75;0.93;;;;;;;16.90;70.68;101988.59;4992182;28;20035;-77
2022/07/23 00:13:37;;;;;;;0.90;0.90;;;;;;;16.89;70.91;101993.00;4978397;28;20041;-77
2022/07/23 00:16:02;;;;;;;2.92;1.17;;;;;;;16.88;70.78;101979.84;4994420;28;20066;-77
2022/07/23 00:18:28;;;;;;;1.75;1.20;;;;;;;16.87;71.09;101979.00;4994269;28;20077;-77
2022/07/23 00:20:53;;;;;;;5.55;1.65;;;;;;;16.87;70.66;101964.91;4980306;28;20225;-77
2022/07/23 00:23:18;;;;;;;1.13;1.00;;;;;;;16.85;71.13;101962.34;4996026;28;20046;-77
2022/07/23 00:25:45;;;;;;;2.10;1.48;;;;;;;16.84;71.19;101960.63;4992898;28;20124;-77
2022/07/23 00:28:11;;;;;;;1.45;1.20;;;;;;;16.84;71.29;101960.63;4991888;28;20081;-77
2022/07/23 00:30:37;;;;;;;2.15;1.40;;;;;;;16.82;71.60;101957.16;4975305;28;20046;-77
2022/07/23 00:33:06;;;;;;;3.42;1.15;;;;;;;16.81;71.45;101968.69;4995426;28;20401;-77
2022/07/23 00:35:34;;;;;;;;;;;;;;;16.81;71.51;101957.25;4988220;28;20031;-77
2022/07/23 00:38:00;;;;;;;1.75;1.40;;;;;;;16.79;71.62;101952.03;4995381;28;20265;-77
2022/07/23 00:40:29;;;;;;;1.60;1.40;;;;;;;16.78;71.80;101958.25;4985707;28;20042;-77
2022/07/23 00:42:54;;;;;;;1.30;1.20;;;;;;;16.77;71.51;101953.91;4988327;28;20214;-77
2022/07/23 00:45:20;;;;;;;4.45;1.63;;;;;;;16.77;71.95;101951.28;4992324;28;20039;-77
2022/07/23 00:47:46;;;;;;;11.10;1.67;;;;;;;16.75;71.90;101945.16;4988426;28;20045;-77
2022/07/23 00:50:13;;;;;;;3.25;1.48;;;;;;;16.75;72.16;101950.47;4985014;28;20096;-77
2022/07/23 00:52:39;;;;;;;3.17;1.50;;;;;;;16.73;71.89;101943.53;4977956;28;20066;-77
2022/07/23 00:55:06;;;;;;;2.75;1.75;;;;;;;16.73;71.96;101947.03;4988303;28;20042;-77
2022/07/23 00:57:31;;;;;;;1.52;1.40;;;;;;;16.72;71.81;101936.53;4975998;28;20104;-77
2022/07/23 00:59:57;;;;;;;3.65;1.75;;;;;;;16.70;71.92;101944.56;4985810;28;20259;-77
2022/07/23 01:02:24;;;;;;;2.72;1.70;;;;;;;16.68;72.16;101944.63;4968870;28;20051;-77
2022/07/23 01:04:49;;;;;;;1.40;1.30;;;;;;;16.69;71.96;101945.47;4962782;28;20022;-77
2022/07/23 01:07:15;;;;;;;3.10;1.90;;;;;;;16.69;71.77;101937.53;4996543;28;20061;-77
2022/07/23 01:09:40;;;;;;;1.50;1.40;;;;;;;16.68;72.06;101943.75;4997690;28;20096;-77
2022/07/23 01:12:06;;;;;;;2.08;1.45;;;;;;;16.67;72.09;101932.31;4997510;28;20044;-77
2022/07/23 01:14:32;;;;;;;2.85;1.50;;;;;;;16.67;71.92;101936.75;4997146;28;20042;-77
2022/07/23 01:16:57;;;;;;;1.50;1.40;;;;;;;16.67;72.06;101934.13;4997480;28;20290;-77
2022/07/23 01:19:23;;;;;;;1.75;1.60;;;;;;;16.66;72.02;101937.69;4997037;28;20057;-77
2022/07/23 01:21:51;;;;;;;1.73;1.63;;;;;;;16.66;72.30;101937.69;4963984;28;20316;-77
2022/07/23 01:24:21;;;;;;;2.25;1.70;;;;;;;16.64;72.05;101945.69;4997140;28;20395;-77
2022/07/23 01:26:47;;;;;;;2.97;1.45;;;;;;;16.63;71.97;101938.72;4980124;28;20036;-77
2022/07/23 01:29:13;;;;;;;3.83;1.40;;;;;;;16.63;72.12;101937.84;4996675;28;20034;-77
2022/07/23 01:31:39;;;;;;;1.80;1.30;;;;;;;16.62;72.12;101944.91;4997312;28;20052;-77
2022/07/23 01:34:06;;;;;;;3.55;1.42;;;;;;;16.60;71.84;101941.50;4997104;28;20423;-77
2022/07/23 01:36:32;;;;;;;2.80;1.63;;;;;;;16.59;71.96;101931.84;4997064;28;20042;-77
2022/07/23 01:38:58;;;;;;;1.90;1.33;;;;;;;16.58;72.43;101927.50;4960129;28;20222;-77
2022/07/23 01:41:23;;;;;;;2.08;1.85;;;;;;;16.56;72.26;101932.00;4994820;28;20050;-77
2022/07/23 01:43:48;;;;;;;3.08;1.60;;;;;;;16.55;72.15;101938.19;4997181;28;20042;-77
2022/07/23 01:46:14;;;;;;;1.85;1.60;;;;;;;16.55;72.04;101937.34;4996785;28;20038;-77
2022/07/23 01:48:39;;;;;;;3.90;1.42;;;;;;;16.54;72.37;101947.09;4980142;28;20279;-77
2022/07/23 01:51:05;;;;;;;1.92;1.70;;;;;;;16.53;72.24;101940.06;4997204;28;20064;-77
2022/07/23 01:53:31;;;;;;;2.13;1.90;;;;;;;16.54;72.60;101943.59;4978946;28;20053;-77
2022/07/23 01:55:59;;;;;;;1.58;1.48;;;;;;;16.51;72.39;101945.44;4993981;28;20096;-77
2022/07/23 01:58:25;;;;;;;1.65;1.55;;;;;;;16.50;72.50;101940.25;4996401;28;20264;-77
2022/07/23 02:00:51;;;;;;;4.13;1.55;;;;;;;16.49;72.56;101936.72;4996400;28;20065;-77
2022/07/23 02:03:16;;;;;;;1.50;1.40;;;;;;;16.47;72.30;101937.72;4978975;28;20034;-77
2022/07/23 02:05:41;;;;;;;2.50;1.40;;;;;;;16.46;72.36;101936.88;4979903;28;20396;-77
2022/07/23 02:08:07;;;;;;;5.28;1.77;;;;;;;16.45;72.52;101929.03;4963400;28;20026;-77
2022/07/23 02:10:32;;;;;;;2.25;1.40;;;;;;;16.44;72.74;101924.66;4979265;28;20042;-77
2022/07/23 02:12:58;;;;;;;1.38;1.27;;;;;;;16.44;72.44;101940.50;4996613;28;20073;-77
2022/07/23 02:15:23;;;;;;;4.07;1.45;;;;;;;16.42;72.64;101937.94;4979218;28;20034;-77
2022/07/23 02:17:49;;;;;;;1.50;1.40;;;;;;;16.40;72.68;101937.16;4996860;28;20054;-77
2022/07/23 02:20:15;;;;;;;1.60;1.50;;;;;;;16.39;72.47;101938.09;4979153;28;20380;-77
2022/07/23 02:22:40;;;;;;;1.67;1.30;;;;;;;16.37;72.84;101926.75;4996510;28;20097;-77
2022/07/23 02:25:07;;;;;;;2.47;1.50;;;;;;;16.36;72.52;101929.47;4997290;28;20073;-77
2022/07/23 02:27:32;;;;;;;2.65;1.92;;;;;;;16.34;72.69;101934.81;4996234;28;20220;-77
2022/07/23 02:29:57;;;;;;;1.65;1.55;;;;;;;16.32;72.58;101939.31;4996767;28;20217;-77
2022/07/23 02:32:24;;;;;;;1.50;1.40;;;;;;;16.31;72.87;101937.59;4978629;28;20061;-77
2022/07/23 02:34:50;;;;;;;1.95;1.75;;;;;;;16.29;72.66;101939.47;4996782;28;20108;-77
2022/07/23 02:37:15;;;;;;;2.00;1.90;;;;;;;16.27;72.99;101941.31;4996549;28;20034;-77
2022/07/23 02:39:40;;;;;;;2.03;1.83;;;;;;;16.25;72.78;101941.41;4994094;28;20026;-77
2022/07/23 02:42:06;;;;;;;4.30;2.00;;;;;;;16.23;72.66;101940.63;4979562;28;20030;-77
2022/07/23 02:44:32;;;;;;;4.53;1.60;;;;;;;16.21;72.93;101945.13;4996027;28;20424;-77
2022/07/23 02:46:58;;;;;;;1.95;1.77;;;;;;;16.19;72.91;101954.91;4996055;28;20041;-75
2022/07/23 02:49:23;;;;;;;2.38;1.73;;;;;;;16.17;72.65;101953.25;4993991;28;20050;-75
2022/07/23 02:51:49;;;;;;;1.95;1.83;;;;;;;16.15;72.76;101949.81;4978730;28;20046;-75
2022/07/23 02:54:14;;;;;;;2.05;1.85;;;;;;;16.14;72.83;101961.34;4994757;28;20035;-75
2022/07/23 02:56:39;;;;;;;2.22;1.90;;;;;;;16.11;73.00;101960.53;4995806;28;20412;-75
2022/07/23 02:59:05;;;;;;;3.67;1.70;;;;;;;16.09;72.93;101951.81;4994382;28;20042;-75
2022/07/23 03:01:30;;;;;;;1.88;1.65;;;;;;;16.07;72.95;101942.25;4995120;28;20065;-75
2022/07/23 03:03:56;;;;;;;2.20;2.10;;;;;;;16.04;72.94;101942.38;4995500;28;20289;-75
2022/07/23 03:06:21;;;;;;;2.17;1.77;;;;;;;16.04;72.87;101937.09;4977658;28;20252;-75
2022/07/23 03:08:47;;;;;;;2.20;2.00;;;;;;;16.02;72.94;101942.47;4977598;28;20058;-75
2022/07/23 03:11:12;;;;;;;2.20;2.00;;;;;;;16.00;73.02;101941.66;4995490;28;20040;-75
2022/07/23 03:13:38;;;;;;;2.60;2.00;;;;;;;16.00;72.94;101948.75;4997577;28;20053;-75
2022/07/23 03:16:04;;;;;;;2.33;1.90;;;;;;;15.98;72.99;101950.59;4999254;28;20042;-75
2022/07/23 03:18:31;;;;;;;2.70;2.22;;;;;;;15.96;73.19;101944.53;4998726;28;20643;-75
2022/07/23 03:20:56;;;;;;;1.92;1.83;;;;;;;15.95;72.92;101946.31;4998768;28;20026;-75
2022/07/23 03:23:21;;;;;;;2.53;2.20;;;;;;;15.93;72.93;101954.31;4998806;28;20053;-75
2022/07/23 03:25:50;;;;;;;1.77;1.63;;;;;;;15.91;73.28;101942.94;4998649;28;20260;-75
2022/07/23 03:28:16;;;;;;;2.60;2.38;;;;;;;15.90;73.17;101946.53;4981776;28;20321;-75
2022/07/23 03:30:42;;;;;;;2.38;2.05;;;;;;;15.87;72.99;101938.72;4999249;28;20034;-75
2022/07/23 03:33:08;;;;;;;2.30;2.10;;;;;;;15.88;73.16;101934.31;4999234;28;20042;-75
2022/07/23 03:35:33;;;;;;;3.35;2.25;;;;;;;15.85;73.22;101943.22;4981116;28;20042;-75
2022/07/23 03:37:59;;;;;;;3.13;2.17;;;;;;;15.83;72.86;101942.44;4998849;28;20321;-75
2022/07/23 03:40:24;;;;;;;2.28;1.85;;;;;;;15.83;73.33;101946.88;4997957;28;20261;-75
2022/07/23 03:42:49;;;;;;;2.90;2.08;;;;;;;15.81;73.03;101954.00;4999427;28;20380;-75
2022/07/23 03:45:15;;;;;;;3.58;2.00;;;;;;;15.81;73.18;101957.50;4963783;28;20034;-75
2022/07/23 03:47:41;;;;;;;2.42;2.22;;;;;;;15.79;73.21;101961.13;4992085;28;20049;-75
2022/07/23 03:50:06;;;;;;;2.28;2.10;;;;;;;15.77;73.23;101963.88;4981427;28;20054;-75
2022/07/23 03:52:32;;;;;;;2.58;2.00;;;;;;;15.76;73.35;101961.28;4995736;28;20260;-75
2022/07/23 03:54:57;;;;;;;2.50;2.30;;;;;;;15.73;73.32;101962.22;4979519;28;20109;-75
2022/07/23 03:57:23;;;;;;;3.03;2.35;;;;;;;15.72;73.42;101957.91;4996263;28;20045;-75
2022/07/23 03:59:48;;;;;;;2.38;2.17;;;;;;;15.70;73.28;101955.31;4996928;28;20300;-75
2022/07/23 04:02:14;;;;;;;2.20;2.10;;;;;;;15.69;73.11;101964.16;4995009;28;20062;-75
2022/07/23 04:04:39;;;;;;;2.65;2.20;;;;;;;15.69;73.12;101968.59;4996445;28;20045;-75
2022/07/23 04:07:06;;;;;;;2.55;2.35;;;;;;;15.67;73.33;101966.00;4996197;28;20046;-75
2022/07/23 04:09:31;;;;;;;2.10;2.00;;;;;;;15.66;73.26;101969.59;4979227;28;20041;-75
2022/07/23 04:11:57;;;;;;;2.42;2.28;;;;;;;15.66;73.43;101979.28;4979436;28;20042;-75
2022/07/23 04:14:22;;;;;;;2.58;2.35;;;;;;;15.64;73.34;101974.06;4996140;28;20038;-75
2022/07/23 04:16:47;;;;;;;2.35;2.25;;;;;;;15.64;73.27;101981.13;4996301;28;20042;-75
2022/07/23 04:19:13;;;;;;;2.42;2.25;;;;;;;15.62;73.40;101975.91;4978800;28;20098;-75
2022/07/23 04:21:38;;;;;;;1.80;1.70;;;;;;;15.62;73.36;101977.69;4995504;28;20092;-75
2022/07/23 04:24:04;;;;;;;2.10;2.00;;;;;;;15.61;73.80;101974.22;4978975;28;20045;-75
2022/07/23 04:26:31;;;;;;;2.22;2.00;;;;;;;15.60;73.55;101977.75;4995802;28;20050;-75
2022/07/23 04:28:56;;;;;;;5.75;2.10;;;;;;;15.60;73.53;101982.19;4995909;28;20222;-75
2022/07/23 04:31:21;;;;;;;2.42;1.98;;;;;;;15.60;73.55;101976.91;4995611;28;20222;-75
2022/07/23 04:33:47;;;;;;;2.35;2.15;;;;;;;15.61;73.72;101981.25;4979386;28;20276;-75
2022/07/23 04:36:12;;;;;;;2.55;2.35;;;;;;;15.58;73.71;101974.34;4978650;28;20038;-75
2022/07/23 04:38:37;;;;;;;2.42;2.22;;;;;;;15.58;73.55;101966.41;4992751;28;20099;-75
2022/07/23 04:41:03;;;;;;;2.47;2.30;;;;;;;15.59;73.51;101969.91;4996688;28;20042;-75
2022/07/23 04:43:28;;;;;;;2.53;2.25;;;;;;;15.58;73.63;101974.34;4996122;28;20378;-75
2022/07/23 04:45:54;;;;;;;2.20;2.00;;;;;;;15.58;73.76;101973.47;4996488;28;20367;-75
2022/07/23 04:48:19;;;;;;;2.75;2.15;;;;;;;15.57;73.57;101969.97;4994817;28;20030;-75
2022/07/23 04:50:45;;;;;;;2.00;1.85;;;;;;;15.57;73.74;101979.69;4995853;28;20058;-75
2022/07/23 04:53:10;;;;;;;2.67;2.47;;;;;;;15.57;73.85;101984.97;4973986;28;20356;-75
2022/07/23 04:55:35;;;;;;;3.25;2.30;;;;;;;15.58;73.60;101986.69;4979241;28;20229;-75
2022/07/23 04:58:01;;;;;;;2.38;2.28;;;;;;;15.57;73.95;101993.72;4978170;28;20042;-75
2022/07/23 05:00:26;;;;;;;4.03;2.25;;;;;;;15.58;73.52;101997.25;4994140;28;20038;-75
2022/07/23 05:02:52;;;;;;;6.47;2.35;;;;;;;15.57;73.58;101988.44;4978225;28;20113;-75
2022/07/23 05:05:17;;;;;;;2.63;2.40;;;;;;;15.57;73.55;101982.31;4995373;28;20038;-75
2022/07/23 05:07:43;;;;;;;2.40;2.20;;;;;;;15.55;73.72;101980.63;4995468;28;20382;-75
2022/07/23 05:10:08;;;;;;;2.80;1.98;;;;;;;15.54;73.75;101976.25;4995770;28;20093;-75
2022/07/23 05:12:33;;;;;;;2.78;1.92;;;;;;;15.57;73.63;101977.03;4995458;28;20046;-75
2022/07/23 05:14:59;;;;;;;2.55;2.22;;;;;;;15.56;73.86;101984.09;4995271;28;20076;-75
2022/07/23 05:17:24;;;;;;;3.92;2.30;;;;;;;15.57;73.75;101982.31;4994748;28;20038;-75
2022/07/23 05:19:50;;;;;;;3.05;2.30;;;;;;;15.56;74.06;101976.19;4995898;28;20030;-75
2022/07/23 05:22:15;;;;;;;2.75;2.42;;;;;;;15.57;73.89;101977.03;4995050;28;20058;-75
2022/07/23 05:24:41;;;;;;;2.60;2.40;;;;;;;15.57;73.92;101979.69;4978055;28;20030;-75
2022/07/23 05:27:06;;;;;;;2.60;2.38;;;;;;;15.58;74.00;101986.69;4978078;28;20038;-75
2022/07/23 05:29:31;;;;;;;3.45;2.60;;;;;;;15.58;74.11;101984.91;4994354;28;20345;-75
2022/07/23 05:31:57;;;;;;;2.78;2.58;;;;;;;15.59;74.22;101984.00;4993017;28;20046;-75
2022/07/23 05:34:22;;;;;;;3.63;3.35;;;;;;;15.59;74.17;101988.38;4995247;28;20194;-75
2022/07/23 05:36:48;;;;;;;3.80;3.40;;;;;;;15.59;75.02;101989.28;4995221;28;20052;-75
2022/07/23 05:39:14;;;;;;;5.10;4.00;;;;;;;15.61;74.79;101983.88;4994122;28;20050;-75
2022/07/23 05:41:39;;;;;;;3.55;3.20;;;;;;;15.61;75.21;101987.41;4994973;28;20125;-75
2022/07/23 05:44:04;;;;;;;3.78;3.47;;;;;;;15.61;75.78;101997.09;4977604;28;20117;-75
2022/07/23 05:46:30;;;;;;;3.65;3.28;;;;;;;15.62;75.38;102001.47;4994902;28;20050;-75
2022/07/23 05:48:55;;;;;;;3.35;3.15;;;;;;;15.62;75.44;102007.59;4993590;28;20065;-75
2022/07/23 05:51:24;;;;;;;3.58;3.28;;;;;;;15.63;75.01;101998.75;4977073;28;20234;-75
2022/07/23 05:53:51;;;;;;;7.55;4.13;;;;;;;15.64;75.67;101996.97;4995910;28;20038;-75
2022/07/23 05:56:17;;;;;;;3.42;3.00;;;;;;;15.65;75.82;101996.91;4994734;28;20042;-75
2022/07/23 05:58:42;;;;;;;3.50;3.20;;;;;;;15.66;76.18;101998.63;4978041;28;20049;-75
2022/07/23 06:01:08;;;;;;;3.35;3.00;;;;;;;15.67;76.22;102008.25;4994987;28;20050;-75
2022/07/23 06:03:34;;;;;;;6.07;3.40;;;;;;;15.67;76.40;102008.25;4994872;28;20611;-75
2022/07/23 06:05:59;;;;;;;4.47;3.63;;;;;;;15.68;76.48;102006.47;4986887;28;20034;-75
2022/07/23 06:08:25;;;;;;;7.25;4.35;;;;;;;15.67;77.21;102004.78;4982795;28;20038;-75
2022/07/23 06:10:50;;;;;;;3.47;3.22;;;;;;;15.69;77.89;102003.75;4987252;28;20060;-75
2022/07/23 06:13:17;;;;;;;3.50;3.20;;;;;;;15.71;77.79;102014.25;4983743;28;20106;-75
2022/07/23 06:15:43;;;;;;;6.38;3.85;;;;;;;15.70;77.75;102016.06;4988520;28;20034;-75
2022/07/23 06:18:08;;;;;;;4.35;3.22;;;;;;;15.71;78.07;102014.25;4986863;28;20055;-75
2022/07/23 06:20:34;;;;;;;3.20;2.75;;;;;;;15.71;77.77;102003.69;4988640;28;20038;-75
2022/07/23 06:22:59;;;;;;;3.97;3.13;;;;;;;15.67;77.81;102000.34;4953040;28;20038;-75
2022/07/23 06:25:24;;;;;;;4.03;2.65;;;;;;;15.67;77.77;101995.06;4967916;28;20030;-75
2022/07/23 06:27:50;;;;;;;2.33;2.13;;;;;;;15.67;77.62;101992.41;4987487;28;20041;-75
2022/07/23 06:30:17;;;;;;;2.72;2.40;;;;;;;15.67;77.66;101995.06;4986167;28;20050;-75
2022/07/23 06:32:42;;;;;;;2.80;2.40;;;;;;;15.68;78.25;101993.25;4967033;28;20060;-75
2022/07/23 06:35:08;;;;;;;4.68;2.42;;;;;;;15.68;78.84;101994.16;4955098;28;20248;-75
2022/07/23 06:37:33;;;;;;;3.25;2.97;;;;;;;15.71;78.97;102001.06;4988069;28;20066;-75
2022/07/23 06:39:58;;;;;;;4.57;2.80;;;;;;;15.71;78.18;102001.06;4994484;28;20335;-75
2022/07/23 06:42:24;;;;;;;2.22;2.03;;;;;;;15.74;78.68;102001.81;4993154;28;20578;-75
2022/07/23 06:44:49;;;;;;;3.55;2.45;;;;;;;15.77;78.69;102008.78;4995206;28;20132;-75
2022/07/23 06:47:15;;;;;;;2.35;2.15;;;;;;;15.81;78.75;102005.06;4994600;28;20038;-75
2022/07/23 06:49:41;;;;;;;2.30;2.10;;;;;;;15.82;78.37;102006.75;4996255;28;20038;-75
2022/07/23 06:52:07;;;;;;;2.40;1.90;;;;;;;15.85;78.30;102000.50;4997585;28;20050;-75
2022/07/23 06:54:32;;;;;;;5.38;2.50;;;;;;;15.86;78.14;102008.34;4980380;28;20053;-75
2022/07/23 06:56:57;;;;;;;3.17;2.15;;;;;;;15.86;78.06;101997.78;4997977;28;20340;-75
2022/07/23 06:59:22;;;;;;;4.13;1.85;;;;;;;15.89;77.87;102004.72;4997453;28;20229;-75
2022/07/23 07:01:48;;;;;;;2.97;2.30;;;;;;;15.90;77.71;102012.56;4979996;28;20034;-75
2022/07/23 07:04:13;;;;;;;2.42;2.17;;;;;;;15.91;77.69;102005.50;4979373;28;20079;-75
2022/07/23 07:06:38;;;;;;;4.40;2.03;;;;;;;15.92;78.29;102008.06;4997419;28;20038;-75
2022/07/23 07:09:04;;;;;;;7.18;2.40;;;;;;;15.98;77.90;102021.94;4998153;28;20038;-75
2022/07/23 07:11:29;;;;;;;3.08;1.77;;;;;;;16.00;77.96;102020.09;4996914;28;20351;-75
2022/07/23 07:13:55;;;;;;;4.15;2.13;;;;;;;16.03;77.50;102019.97;4997915;28;20075;-75
2022/07/23 07:16:20;;;;;;;4.32;1.52;;;;;;;16.09;77.42;102019.66;4996980;28;20257;-75
2022/07/23 07:18:45;;;;;;;2.05;1.95;;;;;;;16.11;77.54;102023.09;4997436;28;20270;-75
2022/07/23 07:21:11;;;;;;;3.53;2.03;;;;;;;16.12;77.50;102017.75;4991625;28;20045;-75
2022/07/23 07:23:37;;;;;;;7.80;2.13;;;;;;;16.14;76.96;102024.75;4997480;28;20038;-75
2022/07/23 07:26:02;;;;;;;2.47;1.60;;;;;;;16.16;77.04;102020.25;4997069;28;20038;-75
2022/07/23 07:28:28;;;;;;;2.88;1.75;;;;;;;16.16;76.54;102029.03;4998858;28;20044;-75
2022/07/23 07:30:53;;;;;;;2.78;2.17;;;;;;;16.18;76.30;102026.34;4981671;28;20045;-75
2022/07/23 07:33:19;;;;;;;3.65;2.70;;;;;;;16.19;76.74;102017.47;4998041;28;20042;-75
2022/07/23 07:35:44;;;;;;;2.92;2.60;;;;;;;16.19;75.70;102025.38;4991840;28;20038;-75
2022/07/23 07:38:09;;;;;;;5.20;2.70;;;;;;;16.20;75.38;102027.97;4983871;28;20041;-75
2022/07/23 07:40:35;;;;;;;2.53;2.33;;;;;;;16.23;74.77;102033.13;4984821;28;20033;-75
2022/07/23 07:43:03;;;;;;;4.75;2.60;;;;;;;16.24;74.72;102031.31;4985976;28;20241;-75
2022/07/23 07:45:28;;;;;;;3.33;2.35;;;;;;;16.28;74.96;102036.41;4996985;28;20041;-75
2022/07/23 07:47:53;;;;;;;5.18;2.40;;;;;;;16.33;75.28;102032.69;5002174;28;20030;-75
2022/07/23 07:50:20;;;;;;;2.90;2.70;;;;;;;16.34;75.26;102039.72;4981653;28;20318;-75
2022/07/23 07:52:46;;;;;;;5.38;2.63;;;;;;;16.39;75.29;102042.97;4998274;28;20038;-75
2022/07/23 07:55:11;;;;;;;4.60;2.65;;;;;;;16.41;74.95;102049.03;4980956;28;20214;-75
2022/07/23 07:57:37;;;;;;;7.03;3.40;;;;;;;16.44;74.87;102046.28;4998347;28;20038;-75
2022/07/23 08:00:06;;;;;;;7.20;3.00;;;;;;;16.46;74.55;102040.00;4996996;28;20241;-75
2022/07/23 08:02:49;;;;;;;4.38;2.95;;;;;;;16.48;75.06;102050.47;4984671;28;20042;-75
2022/07/23 08:05:18;;;;;;;3.83;2.35;;;;;;;16.53;74.87;102045.84;4978774;28;20039;-75
2022/07/23 08:07:43;;;;;;;2.80;2.42;;;;;;;16.56;74.79;102042.22;4978301;28;20154;-75
2022/07/23 08:10:09;;;;;;;3.15;2.72;;;;;;;16.60;74.41;102049.91;4978511;28;20334;-75
2022/07/23 08:12:46;;;;;;;2.35;2.15;;;;;;;16.64;73.86;102056.78;4978114;28;20114;-75
2022/07/23 08:15:17;;;;;;;1.73;1.63;;;;;;;16.67;73.90;102051.34;4978462;28;20246;-75
2022/07/23 08:17:44;;;;;;;3.10;2.10;;;;;;;16.70;73.64;102056.50;4975003;28;20434;-75
2022/07/23 08:20:11;;;;;;;3.00;1.70;;;;;;;16.70;73.11;102050.38;4977571;28;20026;-75
2022/07/23 08:22:51;;;;;;;2.85;1.92;;;;;;;16.73;72.46;102050.19;4978832;28;20046;-75
2022/07/23 08:25:22;;;;;;;2.50;1.75;;;;;;;16.78;73.07;102042.91;4974077;28;20033;-75
2022/07/23 08:27:49;;;;;;;4.20;1.90;;;;;;;16.82;74.37;102054.19;4978520;28;20033;-75
2022/07/23 08:30:14;;;;;;;2.70;1.88;;;;;;;16.85;73.75;102054.94;4978190;28;20218;-75
2022/07/23 08:32:55;;;;;;;3.05;2.10;;;;;;;16.89;73.26;102056.50;4978739;28;20034;-75
2022/07/23 08:35:29;;;;;;;2.22;1.65;;;;;;;16.93;72.40;102051.06;4972686;28;20038;-75
2022/07/23 08:37:58;;;;;;;1.60;1.50;;;;;;;16.95;72.47;102051.84;4970729;28;20358;-75
2022/07/23 08:40:26;;;;;;;1.48;1.30;;;;;;;16.99;72.51;102051.66;4971926;28;20253;-75
2022/07/23 08:42:52;;;;;;;2.53;1.50;;;;;;;17.03;72.65;102049.72;4976854;28;20034;-75
2022/07/23 08:45:22;;;;;;;2.78;1.40;;;;;;;17.05;72.77;102053.97;4976152;28;20039;-75
2022/07/23 08:47:52;;;;;;;1.40;1.30;;;;;;;17.10;72.33;102058.19;4976319;28;20133;-75
2022/07/23 08:50:19;;;;;;;2.05;1.20;;;;;;;17.12;72.82;102059.84;4975760;28;20081;-75
2022/07/23 08:52:45;;;;;;;1.55;1.10;;;;;;;17.14;72.72;102054.47;4976219;28;20046;-75
2022/07/23 08:55:11;;;;;;;1.40;1.15;;;;;;;17.17;72.31;102054.31;4969304;28;20376;-75
2022/07/23 08:57:36;;;;;;;2.58;1.30;;;;;;;17.20;72.67;102062.09;4976513;28;20051;-75
2022/07/23 09:00:04;;;;;;;3.33;1.83;;;;;;;17.23;72.06;102070.75;4974566;28;20326;-75
2022/07/23 09:02:29;;;;;;;3.00;1.85;;;;;;;17.25;71.77;102070.69;4978492;28;20070;-75
2022/07/23 09:04:55;;;;;;;1.52;1.42;;;;;;;17.28;71.65;102073.16;4994250;28;20104;-75
2022/07/23 09:07:20;;;;;;;2.78;1.65;;;;;;;17.30;70.15;102076.63;4995005;28;20261;-75
2022/07/23 09:09:46;;;;;;;3.88;1.65;;;;;;;17.34;69.83;102069.38;4981853;28;20220;-74
2022/07/23 09:12:11;;;;;;;4.45;1.73;;;;;;;17.37;69.99;102067.44;4976061;28;20034;-75
2022/07/23 09:14:43;;;;;;;4.45;1.77;;;;;;;17.40;69.74;102067.25;4992999;28;20128;-75
2022/07/23 09:17:13;;;;;;;4.30;1.40;;;;;;;17.43;69.77;102071.56;4992136;28;20038;-75
2022/07/23 09:19:39;;;;;;;2.13;1.30;;;;;;;17.46;69.99;102068.75;4994567;28;20089;-75
2022/07/23 09:22:26;;;;;;;3.05;1.52;;;;;;;17.50;70.75;102066.78;4988772;28;20034;-75
2022/07/23 09:25:10;;;;;;;2.75;1.60;;;;;;;17.55;71.35;102064.78;4993903;28;20033;-75
2022/07/23 09:28:07;;;;;;;1.67;1.20;;;;;;;17.59;70.72;102064.56;4995677;28;20444;-75
2022/07/23 09:30:34;;;;;;;4.18;1.33;;;;;;;17.60;69.95;102066.25;4980550;28;20061;-75
2022/07/23 09:33:11;;;;;;;1.50;1.17;;;;;;;17.63;70.16;102067.91;4995215;28;20137;-75
2022/07/23 09:35:46;;;;;;;4.93;1.17;;;;;;;17.67;69.38;102063.31;4995018;28;20042;-75
2022/07/23 09:38:12;;;;;;;2.28;1.33;;;;;;;17.68;68.06;102059.72;4992188;28;20264;-75
2022/07/23 09:40:38;;;;;;;2.28;1.20;;;;;;;17.71;69.13;102065.72;4987058;28;20125;-75
2022/07/23 09:43:03;;;;;;;0.80;0.80;;;;;;;17.75;69.50;102069.06;4996161;28;20053;-75
2022/07/23 09:45:28;;;;;;;2.53;1.05;;;;;;;17.78;69.51;102066.25;4992997;28;20332;-75
2022/07/23 09:48:11;;;;;;;2.13;0.93;;;;;;;17.81;69.36;102059.00;4993729;28;20077;-75
2022/07/23 09:50:36;;;;;;;1.40;1.30;;;;;;;17.84;69.68;102069.47;4994422;28;20034;-75
2022/07/23 09:53:02;;;;;;;1.05;1.00;;;;;;;17.89;69.23;102065.75;4994929;28;20038;-75
2022/07/23 09:55:38;;;;;;;1.30;1.20;;;;;;;17.93;69.45;102073.44;4994043;28;20042;-75
2022/07/23 09:58:06;;;;;;;1.25;1.10;;;;;;;17.96;69.40;102069.78;4974704;28;20227;-75
2022/07/23 10:00:35;;;;;;;1.98;1.33;;;;;;;17.99;68.32;102067.84;4991228;28;20042;-75
2022/07/23 10:03:03;;;;;;;2.90;1.50;;;;;;;18.02;68.40;102072.09;4974788;28;20051;-75
2022/07/23 10:05:30;;;;;;;1.20;1.10;;;;;;;18.09;68.01;102065.53;4971105;28;20035;-75
2022/07/23 10:07:57;;;;;;;1.38;1.25;;;;;;;18.14;68.23;102070.63;4968732;28;20022;-77
2022/07/23 10:10:26;;;;;;;4.50;1.67;;;;;;;18.17;67.94;102071.31;4977723;28;20081;-76
2022/07/23 10:15:28;;;;;;;5.15;1.42;;;;;;;18.23;67.40;102073.63;4971556;28;20031;-76
2022/07/23 10:17:54;;;;;;;2.22;1.33;;;;;;;18.27;67.70;102069.00;4958158;28;20045;-75
2022/07/23 10:20:19;;;;;;;1.23;1.02;;;;;;;18.31;66.96;102069.69;4975320;28;20356;-75
2022/07/23 10:22:55;;;;;;;3.00;1.27;;;;;;;18.33;66.75;102073.97;4986359;28;20034;-75
2022/07/23 10:25:49;;;;;;;1.20;1.10;;;;;;;18.36;66.78;102067.66;4984123;28;20085;-75
2022/07/23 10:28:17;;;;;;;4.78;1.45;;;;;;;18.41;67.20;102062.97;4980021;28;20057;-76
2022/07/23 10:31:05;;;;;;;1.80;1.50;;;;;;;18.44;66.44;102065.44;4982518;28;20202;-75
2022/07/23 10:33:45;;;;;;;1.83;1.30;;;;;;;18.50;67.01;102070.44;4974016;28;20065;-75
2022/07/23 10:36:38;;;;;;;3.42;1.17;;;;;;;18.53;67.06;102064.09;4977106;28;20299;-75
2022/07/23 10:39:08;;;;;;;1.52;1.40;;;;;;;18.56;68.26;102064.78;4972992;28;20051;-75
2022/07/23 10:41:38;;;;;;;1.52;1.30;;;;;;;18.59;67.02;102059.31;4976228;28;20026;-75
2022/07/23 10:44:19;;;;;;;1.40;1.30;;;;;;;18.65;67.79;102063.41;4977250;28;20026;-75
2022/07/23 10:49:31;;;;;;;3.22;1.40;;;;;;;18.79;67.29;102063.50;4977844;28;20042;-75
2022/07/23 10:52:14;;;;;;;1.70;1.20;;;;;;;18.82;66.32;102056.34;4980373;28;20029;-75
2022/07/23 10:54:51;;;;;;;2.88;1.52;;;;;;;18.85;64.47;102056.19;4977631;28;20056;-75
2022/07/23 10:57:21;;;;;;;1.48;1.38;;;;;;;18.89;65.35;102060.38;4980290;28;20106;-75
2022/07/23 11:02:31;;;;;;;3.05;1.30;;;;;;;18.92;63.44;102049.59;4983797;28;20121;-75
2022/07/23 11:05:12;;;;;;;3.10;1.30;;;;;;;18.96;64.03;102057.28;4997357;28;20037;-75
2022/07/23 11:08:03;;;;;;;1.67;1.58;;;;;;;19.05;63.27;102055.03;4982834;28;20038;-75
2022/07/23 11:10:38;;;;;;;1.20;1.10;;;;;;;19.13;64.96;102053.63;4987622;28;20026;-75
2022/07/23 11:13:21;;;;;;;1.42;1.00;;;;;;;19.16;64.76;102056.13;4999052;28;20046;-75
2022/07/23 11:16:05;;;;;;;1.65;1.23;;;;;;;19.22;63.81;102051.41;4994814;28;20219;-75
2022/07/23 11:18:40;;;;;;;2.80;1.52;;;;;;;19.26;62.88;102058.25;4989754;28;20049;-75
2022/07/23 11:21:20;;;;;;;1.83;1.38;;;;;;;19.31;62.44;102051.72;4992335;28;20034;-75
2022/07/23 11:24:06;;;;;;;1.40;1.30;;;;;;;19.35;63.48;102053.25;4992605;28;20106;-76
2022/07/23 11:26:41;;;;;;;1.65;1.42;;;;;;;19.40;64.47;102052.13;4997198;28;20026;-76
2022/07/23 11:29:25;;;;;;;2.63;1.90;;;;;;;19.43;63.85;102055.47;4994522;28;20060;-76
2022/07/23 11:32:16;;;;;;;1.30;1.20;;;;;;;19.43;64.87;102044.84;5003628;28;20036;-76
2022/07/23 11:34:46;;;;;;;3.83;1.60;;;;;;;19.45;64.11;102044.75;4990941;28;20054;-76